Lindstrom, Minnesota
Current Conditions -  °F | °C
As of 9:15 AM on Thursday 18 Dec 2014 (Local Time) from KOEO Reporting Station
Overcast Overcast  
Wind Chill: 22°   Ceiling: 1200
Heat Index: 22°   Visibility: 10mi
Dew Point: 19°   Wind: 3mph
Humidity: 88%   Direction: 100°E
Pressure: 30.33"   Gusts: NA
Location:  45.39°N, 92.85°W
Report Text: KOEO 181515Z AUTO 10003KT 10SM OVC012 M06/M07 A3033 RMK AO2 T10581075
Loading
Personal Weather Stations






























Interactive Weather Map New forecast layout! Learn more

10-Day Weather Forecast

Advertisements
Track Severe Weather on mobile